Time;durP1;ratioP1;P1;durP2;ratioP2;P2;SDS_P1;SDS_P2;PMS_P1;PMS_P2;Temp;Humidity;BMP_temperature;BMP_pressure;BME280_temperature;BME280_humidity;BME280_pressure;Samples;Min_cycle;Max_cycle;Signal;HPM_P1;HPM_P2
2022/08/01 00:00:07;;;;;;;6.82;2.47;;;18.40;99.90;;;;;;5030187;28;20043;-39
2022/08/01 00:02:33;;;;;;;3.72;1.80;;;18.40;99.90;;;;;;5030006;28;20042;-38
2022/08/01 00:04:59;;;;;;;4.32;2.55;;;18.40;99.90;;;;;;5030180;28;20045;-39
2022/08/01 00:07:25;;;;;;;4.57;2.22;;;18.40;99.90;;;;;;5029816;28;20045;-39
2022/08/01 00:09:51;;;;;;;4.30;2.15;;;18.40;99.90;;;;;;5030207;28;20449;-39
2022/08/01 00:12:17;;;;;;;3.03;1.83;;;18.40;99.90;;;;;;5026073;28;20061;-41
2022/08/01 00:14:42;;;;;;;5.97;2.15;;;18.40;99.90;;;;;;5028742;28;20045;-39
2022/08/01 00:17:08;;;;;;;6.88;2.03;;;18.40;99.90;;;;;;5028796;28;20410;-39
2022/08/01 00:19:34;;;;;;;3.50;2.20;;;18.40;99.90;;;;;;5029648;28;20041;-40
2022/08/01 00:22:00;;;;;;;3.80;1.90;;;18.40;99.90;;;;;;5029616;28;20038;-39
2022/08/01 00:24:26;;;;;;;3.33;2.00;;;18.40;99.90;;;;;;5029826;28;20033;-39
2022/08/01 00:26:51;;;;;;;3.35;1.85;;;18.40;99.90;;;;;;5029795;28;20081;-41
2022/08/01 00:29:17;;;;;;;2.97;1.90;;;18.40;99.90;;;;;;5024469;28;20406;-39
2022/08/01 00:31:42;;;;;;;4.22;2.17;;;18.40;99.90;;;;;;5022685;28;20116;-41
2022/08/01 00:34:08;;;;;;;6.53;2.22;;;18.40;99.90;;;;;;5029929;28;20443;-41
2022/08/01 00:36:34;;;;;;;4.63;2.03;;;18.40;99.90;;;;;;5028194;28;20076;-39
2022/08/01 00:38:59;;;;;;;3.75;1.80;;;18.40;99.90;;;;;;5027018;28;20041;-39
2022/08/01 00:41:25;;;;;;;3.05;2.15;;;18.40;99.90;;;;;;5027209;28;20037;-39
2022/08/01 00:43:51;;;;;;;5.38;1.92;;;18.40;99.90;;;;;;5030596;28;20049;-41
2022/08/01 00:46:16;;;;;;;3.75;1.73;;;18.40;99.90;;;;;;5033471;28;20041;-38
2022/08/01 00:48:42;;;;;;;3.83;2.30;;;18.40;99.90;;;;;;5032662;28;20040;-41
2022/08/01 00:51:08;;;;;;;4.18;1.60;;;18.40;99.90;;;;;;5033292;28;20076;-38
2022/08/01 00:53:34;;;;;;;3.80;1.83;;;18.40;99.90;;;;;;5033491;28;20064;-41
2022/08/01 00:56:01;;;;;;;3.58;2.10;;;18.40;99.90;;;;;;5031991;28;20045;-39
2022/08/01 00:58:30;;;;;;;3.70;2.08;;;18.40;99.90;;;;;;5027894;28;20037;-39
2022/08/01 01:00:56;;;;;;;4.35;1.90;;;18.30;99.90;;;;;;5033487;28;20040;-41
2022/08/01 01:03:23;;;;;;;2.83;1.83;;;18.30;99.90;;;;;;5027537;28;20550;-38
2022/08/01 01:05:59;;;;;;;4.00;1.58;;;18.30;99.90;;;;;;5031402;28;20044;-39
2022/08/01 01:08:31;;;;;;;2.92;1.50;;;18.30;99.90;;;;;;5033039;28;20204;-39
2022/08/01 01:11:15;;;;;;;2.85;1.50;;;18.30;99.90;;;;;;5029683;28;20087;-39
2022/08/01 01:13:49;;;;;;;1.90;1.30;;;18.30;99.90;;;;;;5033069;28;20043;-41
2022/08/01 01:16:18;;;;;;;3.05;1.40;;;18.30;99.90;;;;;;5033081;28;20041;-40
2022/08/01 01:18:49;;;;;;;4.00;1.90;;;18.30;99.90;;;;;;5020416;28;20053;-41
2022/08/01 01:21:18;;;;;;;4.68;1.55;;;18.30;99.90;;;;;;5031078;28;20107;-39
2022/08/01 01:23:56;;;;;;;2.28;1.48;;;18.30;99.90;;;;;;5033005;28;20063;-41
2022/08/01 01:26:50;;;;;;;3.30;1.67;;;18.30;99.90;;;;;;5032922;28;20045;-38
2022/08/01 01:29:20;;;;;;;5.07;1.60;;;18.20;99.90;;;;;;5033082;28;20398;-41
2022/08/01 01:31:50;;;;;;;5.00;1.80;;;18.30;99.90;;;;;;5032616;28;20038;-39
2022/08/01 01:34:20;;;;;;;3.42;1.88;;;18.20;99.90;;;;;;5032958;28;20043;-41
2022/08/01 01:36:48;;;;;;;3.35;1.58;;;18.20;99.90;;;;;;5032383;28;20063;-41
2022/08/01 01:39:15;;;;;;;3.80;1.50;;;18.20;99.90;;;;;;5030767;28;20116;-42
2022/08/01 01:41:43;;;;;;;4.35;1.50;;;18.10;99.90;;;;;;5032472;28;20049;-41
2022/08/01 01:44:10;;;;;;;3.13;1.50;;;18.10;99.90;;;;;;5032721;28;20049;-39
2022/08/01 01:46:36;;;;;;;2.33;1.50;;;18.10;99.90;;;;;;5032383;28;20041;-39
2022/08/01 01:49:04;;;;;;;3.33;1.60;;;18.20;99.90;;;;;;5032554;28;20052;-39
2022/08/01 01:51:31;;;;;;;3.15;1.38;;;18.20;99.90;;;;;;5030254;28;20403;-39
2022/08/01 01:53:58;;;;;;;3.22;1.33;;;18.20;99.90;;;;;;5032141;28;20048;-39
2022/08/01 01:56:26;;;;;;;3.33;1.50;;;18.20;99.90;;;;;;5029687;28;20054;-40
2022/08/01 01:58:56;;;;;;;3.45;1.70;;;18.20;99.90;;;;;;5027898;28;20542;-39
2022/08/01 02:01:28;;;;;;;4.05;1.50;;;18.20;99.90;;;;;;5032307;28;20137;-41
2022/08/01 02:03:56;;;;;;;2.22;1.20;;;18.20;99.90;;;;;;5032199;28;20136;-44
2022/08/01 02:06:24;;;;;;;2.25;1.42;;;18.20;99.90;;;;;;5031995;28;20548;-39
2022/08/01 02:08:51;;;;;;;4.95;1.98;;;18.20;99.90;;;;;;5032083;28;20522;-39
2022/08/01 02:11:18;;;;;;;3.08;1.85;;;18.20;99.90;;;;;;5031786;28;20038;-47
2022/08/01 02:13:52;;;;;;;2.15;1.38;;;18.20;99.90;;;;;;5025204;28;20116;-41
2022/08/01 02:16:20;;;;;;;4.72;1.33;;;18.20;99.90;;;;;;5018958;28;20041;-39
2022/08/01 02:18:46;;;;;;;2.47;1.50;;;18.20;99.90;;;;;;5031765;28;20053;-39
2022/08/01 02:21:16;;;;;;;2.03;0.98;;;18.20;99.90;;;;;;5031226;28;20482;-40
2022/08/01 02:23:43;;;;;;;1.15;0.73;;;18.10;99.90;;;;;;5031903;28;20130;-40
2022/08/01 02:26:13;;;;;;;2.65;0.90;;;18.10;99.90;;;;;;5031244;28;20040;-39
2022/08/01 02:28:54;;;;;;;2.03;0.75;;;18.10;99.90;;;;;;5027907;28;20360;-42
2022/08/01 02:31:21;;;;;;;3.15;1.00;;;18.10;99.90;;;;;;5031330;28;20040;-39
2022/08/01 02:34:01;;;;;;;2.72;1.38;;;18.00;99.90;;;;;;5031570;28;20116;-39
2022/08/01 02:36:29;;;;;;;2.05;0.80;;;18.00;99.90;;;;;;5030950;28;20107;-39
2022/08/01 02:38:58;;;;;;;4.05;1.10;;;18.00;99.90;;;;;;5030083;28;20049;-39
2022/08/01 02:41:26;;;;;;;2.85;1.10;;;18.00;99.90;;;;;;5030636;28;20045;-39
2022/08/01 02:43:56;;;;;;;3.35;1.00;;;18.00;99.90;;;;;;5031212;28;20092;-39
2022/08/01 02:46:31;;;;;;;1.85;0.82;;;18.00;99.90;;;;;;5029058;28;20124;-42
2022/08/01 02:49:00;;;;;;;2.15;1.30;;;18.00;99.90;;;;;;5030097;28;20073;-44
2022/08/01 02:51:28;;;;;;;1.95;1.20;;;18.10;99.90;;;;;;5031237;28;20040;-41
2022/08/01 02:53:56;;;;;;;2.97;1.00;;;18.10;99.90;;;;;;5029975;28;20050;-41
2022/08/01 02:56:23;;;;;;;2.50;1.10;;;18.10;99.90;;;;;;5030786;28;20553;-40
2022/08/01 02:58:51;;;;;;;3.72;1.33;;;18.10;99.90;;;;;;5026986;28;20050;-40
2022/08/01 03:01:19;;;;;;;4.05;1.70;;;18.10;99.90;;;;;;5030330;28;20384;-38
2022/08/01 03:03:45;;;;;;;2.72;1.20;;;18.10;99.90;;;;;;5025119;28;20275;-41
2022/08/01 03:06:12;;;;;;;3.28;1.77;;;18.10;99.90;;;;;;5030579;28;20072;-41
2022/08/01 03:08:39;;;;;;;3.50;1.35;;;18.10;99.90;;;;;;5030968;28;20483;-39
2022/08/01 03:11:06;;;;;;;3.35;1.50;;;18.10;99.90;;;;;;5030681;28;20111;-39
2022/08/01 03:13:33;;;;;;;3.90;1.50;;;18.10;99.90;;;;;;5022118;28;20073;-39
2022/08/01 03:16:00;;;;;;;3.28;1.35;;;18.00;99.90;;;;;;5028468;28;20037;-39
2022/08/01 03:18:27;;;;;;;3.53;1.67;;;18.00;99.90;;;;;;5030641;28;20053;-39
2022/08/01 03:20:54;;;;;;;4.93;1.70;;;18.00;99.90;;;;;;5028118;28;20080;-40
2022/08/01 03:23:22;;;;;;;6.93;2.17;;;18.00;99.90;;;;;;5030744;28;20084;-39
2022/08/01 03:25:50;;;;;;;4.88;2.00;;;18.10;99.90;;;;;;5030254;28;20514;-38
2022/08/01 03:28:17;;;;;;;3.10;1.80;;;18.10;99.90;;;;;;5030302;28;20048;-41
2022/08/01 03:30:44;;;;;;;2.85;1.65;;;18.00;99.90;;;;;;5030383;28;20045;-42
2022/08/01 03:33:10;;;;;;;4.90;1.80;;;18.00;99.90;;;;;;5019022;28;20057;-39
2022/08/01 03:35:42;;;;;;;3.55;1.67;;;18.00;99.90;;;;;;5028699;28;20045;-39
2022/08/01 03:38:10;;;;;;;3.15;1.50;;;18.00;99.90;;;;;;5024987;28;20080;-41
2022/08/01 03:40:38;;;;;;;5.03;1.88;;;18.00;99.90;;;;;;5028200;28;20402;-39
2022/08/01 03:43:20;;;;;;;3.30;1.38;;;18.00;99.90;;;;;;5030609;28;20399;-39
2022/08/01 03:45:50;;;;;;;4.57;1.70;;;17.90;99.90;;;;;;5029698;28;20037;-39
2022/08/01 03:48:26;;;;;;;2.97;1.48;;;17.90;99.90;;;;;;5030307;28;20072;-39
2022/08/01 03:50:52;;;;;;;3.30;1.30;;;17.90;99.90;;;;;;5015089;28;20042;-39
2022/08/01 03:53:24;;;;;;;3.90;1.08;;;17.80;99.90;;;;;;5026164;28;20466;-39
2022/08/01 03:55:51;;;;;;;4.80;1.20;;;17.80;99.90;;;;;;5014865;28;20064;-39
2022/08/01 03:58:18;;;;;;;3.92;1.40;;;17.80;99.90;;;;;;5020603;28;20099;-46
2022/08/01 04:00:44;;;;;;;3.47;0.88;;;17.80;99.90;;;;;;5028574;28;20053;-39
2022/08/01 04:03:12;;;;;;;4.07;1.23;;;17.80;99.90;;;;;;5029799;28;20045;-41
2022/08/01 04:05:41;;;;;;;2.60;1.00;;;17.80;99.90;;;;;;5044969;28;20048;-39
2022/08/01 04:08:06;;;;;;;5.38;1.10;;;17.80;99.90;;;;;;5029515;28;20044;-41
2022/08/01 04:10:32;;;;;;;3.88;1.10;;;17.80;99.90;;;;;;5022152;28;20042;-39
2022/08/01 04:12:58;;;;;;;2.42;0.90;;;17.80;99.90;;;;;;5029458;28;20047;-39
2022/08/01 04:15:24;;;;;;;4.60;0.80;;;17.80;99.90;;;;;;5029842;28;20128;-39
2022/08/01 04:17:50;;;;;;;3.40;0.80;;;17.80;99.90;;;;;;5029747;28;20461;-39
2022/08/01 04:20:16;;;;;;;2.28;0.80;;;17.80;99.90;;;;;;5029403;28;20080;-39
2022/08/01 04:22:42;;;;;;;2.95;0.98;;;17.80;99.90;;;;;;5027936;28;20057;-41
2022/08/01 04:25:14;;;;;;;3.05;0.77;;;17.80;99.90;;;;;;5029965;28;20034;-41
2022/08/01 04:27:45;;;;;;;2.97;0.80;;;17.80;99.90;;;;;;5025084;28;20081;-39
2022/08/01 04:30:12;;;;;;;1.73;0.70;;;17.70;99.90;;;;;;5023740;28;20502;-39
2022/08/01 04:32:39;;;;;;;5.47;1.10;;;17.80;99.90;;;;;;5029314;28;20041;-39
2022/08/01 04:35:09;;;;;;;3.63;0.90;;;17.80;99.90;;;;;;5029639;28;20509;-39
2022/08/01 04:37:36;;;;;;;2.45;1.33;;;17.80;99.90;;;;;;5029214;28;20049;-42
2022/08/01 04:40:06;;;;;;;3.88;1.10;;;17.80;99.90;;;;;;5016392;28;20103;-39
2022/08/01 04:42:33;;;;;;;3.10;0.98;;;17.70;99.90;;;;;;5029568;28;20046;-39
2022/08/01 04:44:59;;;;;;;3.25;1.08;;;17.80;99.90;;;;;;5027294;28;20049;-39
2022/08/01 04:47:26;;;;;;;2.08;1.30;;;17.70;99.90;;;;;;5029724;28;20064;-39
2022/08/01 04:49:53;;;;;;;2.67;1.00;;;17.70;99.90;;;;;;5029705;28;20042;-44
2022/08/01 04:52:19;;;;;;;2.40;1.10;;;17.70;99.90;;;;;;5029333;28;20112;-41
2022/08/01 04:54:46;;;;;;;3.70;1.20;;;17.70;99.90;;;;;;5029698;28;20184;-41
2022/08/01 04:57:12;;;;;;;4.80;1.25;;;17.80;99.90;;;;;;5027577;28;20037;-39
2022/08/01 04:59:42;;;;;;;2.53;1.13;;;17.80;99.90;;;;;;5023415;28;20068;-39
2022/08/01 05:02:14;;;;;;;5.38;1.25;;;17.80;99.90;;;;;;5025731;28;20049;-41
2022/08/01 05:04:41;;;;;;;5.07;1.20;;;17.70;99.90;;;;;;5029512;28;20061;-39
2022/08/01 05:07:07;;;;;;;3.63;1.13;;;17.70;99.90;;;;;;5029237;28;20355;-39
2022/08/01 05:09:34;;;;;;;4.88;1.45;;;17.70;99.90;;;;;;5024969;28;20634;-41
2022/08/01 05:12:01;;;;;;;5.22;1.38;;;17.70;99.90;;;;;;5022486;28;20053;-39
2022/08/01 05:14:28;;;;;;;6.18;1.48;;;17.70;99.90;;;;;;5018441;28;20029;-39
2022/08/01 05:16:54;;;;;;;4.35;1.20;;;17.70;99.90;;;;;;5020458;28;20041;-42
2022/08/01 05:19:20;;;;;;;7.63;1.73;;;17.70;99.90;;;;;;5029170;28;20053;-40
2022/08/01 05:21:46;;;;;;;8.57;1.50;;;17.70;99.90;;;;;;5028870;28;20041;-39
2022/08/01 05:24:12;;;;;;;8.88;1.65;;;17.70;99.90;;;;;;5016212;28;20048;-41
2022/08/01 05:26:39;;;;;;;6.32;1.52;;;17.70;99.90;;;;;;5032233;28;20128;-41
2022/08/01 05:29:05;;;;;;;8.10;1.83;;;17.70;99.90;;;;;;5032867;28;20099;-39
2022/08/01 05:31:33;;;;;;;6.53;1.80;;;17.70;99.90;;;;;;5031732;28;20506;-39
2022/08/01 05:34:00;;;;;;;11.30;2.00;;;17.60;99.90;;;;;;5032999;28;20049;-41
2022/08/01 05:36:26;;;;;;;5.95;2.03;;;17.60;99.90;;;;;;5032371;28;20152;-41
2022/08/01 05:38:52;;;;;;;6.40;1.63;;;17.60;99.90;;;;;;5027764;28;20073;-41
2022/08/01 05:41:18;;;;;;;8.40;1.83;;;17.60;99.90;;;;;;5025131;28;20095;-41
2022/08/01 05:43:43;;;;;;;9.95;1.63;;;17.70;99.90;;;;;;5031108;28;20045;-41
2022/08/01 05:46:09;;;;;;;6.53;2.10;;;17.70;99.90;;;;;;5027029;28;20454;-38
2022/08/01 05:48:34;;;;;;;6.80;1.75;;;17.80;99.90;;;;;;5030845;28;20103;-40
2022/08/01 05:51:00;;;;;;;6.55;1.98;;;17.80;99.90;;;;;;5025587;28;20109;-39
2022/08/01 05:53:26;;;;;;;9.40;1.85;;;17.80;99.90;;;;;;5029864;28;20053;-41
2022/08/01 05:55:52;;;;;;;8.65;1.77;;;17.90;99.90;;;;;;5032404;28;20495;-39
2022/08/01 05:58:17;;;;;;;7.00;1.40;;;17.90;99.90;;;;;;5027174;28;20045;-41
2022/08/01 06:00:43;;;;;;;5.50;1.33;;;17.90;99.90;;;;;;5032050;28;20110;-41
2022/08/01 06:03:11;;;;;;;7.97;1.60;;;17.90;99.90;;;;;;5029551;28;20072;-38
2022/08/01 06:05:36;;;;;;;11.25;1.95;;;17.90;99.90;;;;;;5032236;28;20183;-41
2022/08/01 06:08:02;;;;;;;11.43;2.20;;;17.90;99.90;;;;;;5031968;28;20538;-41
2022/08/01 06:10:28;;;;;;;11.32;2.35;;;17.80;99.90;;;;;;5031616;28;20113;-41
2022/08/01 06:12:54;;;;;;;9.05;1.83;;;17.90;99.90;;;;;;5031565;28;20192;-39
2022/08/01 06:15:19;;;;;;;9.95;1.55;;;17.90;99.90;;;;;;5031981;28;20467;-39
2022/08/01 06:17:45;;;;;;;6.30;1.42;;;17.80;99.90;;;;;;5031392;28;20143;-39
2022/08/01 06:20:12;;;;;;;11.95;1.80;;;17.90;99.90;;;;;;5028507;28;20141;-39
2022/08/01 06:22:37;;;;;;;13.25;2.17;;;17.90;99.90;;;;;;5031132;28;21294;-39
2022/08/01 06:25:04;;;;;;;7.53;2.03;;;17.90;99.90;;;;;;5031749;28;20133;-39
2022/08/01 06:27:30;;;;;;;11.82;2.08;;;17.90;99.90;;;;;;5030975;28;20132;-39
2022/08/01 06:29:56;;;;;;;10.70;1.92;;;17.90;99.90;;;;;;5031713;28;20526;-39
2022/08/01 06:32:23;;;;;;;13.43;1.70;;;17.90;99.90;;;;;;5031364;28;20117;-42
2022/08/01 06:34:48;;;;;;;8.73;1.88;;;17.90;99.90;;;;;;5027190;28;20116;-39
2022/08/01 06:37:15;;;;;;;5.68;1.45;;;17.90;99.90;;;;;;5026396;28;20443;-39
2022/08/01 06:39:41;;;;;;;10.38;1.90;;;17.90;99.90;;;;;;5018254;28;20033;-39
2022/08/01 06:42:07;;;;;;;10.95;1.75;;;17.90;99.90;;;;;;5030392;28;20482;-41
2022/08/01 06:44:32;;;;;;;13.00;1.52;;;17.90;99.90;;;;;;5031653;28;20491;-41
2022/08/01 06:46:58;;;;;;;10.50;1.83;;;17.90;99.90;;;;;;5031259;28;20060;-41
2022/08/01 06:49:24;;;;;;;8.10;1.63;;;17.90;99.90;;;;;;5031529;28;20048;-41
2022/08/01 06:51:50;;;;;;;9.27;1.55;;;18.00;99.90;;;;;;5025465;28;20044;-39
2022/08/01 06:54:16;;;;;;;14.35;2.00;;;18.00;99.90;;;;;;5031399;28;20048;-39
2022/08/01 06:56:42;;;;;;;10.23;1.45;;;18.00;99.90;;;;;;5030913;28;20041;-39
2022/08/01 06:59:07;;;;;;;9.38;1.48;;;18.00;99.90;;;;;;5026038;28;20466;-39
2022/08/01 07:01:33;;;;;;;8.80;1.98;;;18.10;99.90;;;;;;5031207;28;20046;-39
2022/08/01 07:03:59;;;;;;;8.63;1.33;;;18.10;99.90;;;;;;5031066;28;20056;-41
2022/08/01 07:06:25;;;;;;;9.73;1.13;;;18.20;99.90;;;;;;5030871;28;20041;-39
2022/08/01 07:08:51;;;;;;;10.05;2.45;;;18.20;99.90;;;;;;5030088;28;20037;-42
2022/08/01 07:11:18;;;;;;;10.07;1.92;;;18.40;99.90;;;;;;5030505;28;20045;-41
2022/08/01 07:13:45;;;;;;;11.50;1.90;;;18.50;99.90;;;;;;5012987;28;20049;-41
2022/08/01 07:16:14;;;;;;;8.80;1.38;;;18.60;99.90;;;;;;5030539;28;20079;-39
2022/08/01 07:18:40;;;;;;;9.50;1.52;;;18.60;99.90;;;;;;5030730;28;20145;-41
2022/08/01 07:21:06;;;;;;;8.43;1.52;;;18.70;99.90;;;;;;5030498;28;20112;-42
2022/08/01 07:23:32;;;;;;;7.72;1.58;;;18.80;99.90;;;;;;5030677;28;21278;-39
2022/08/01 07:25:58;;;;;;;10.88;2.42;;;18.80;99.90;;;;;;5026932;28;20030;-41
2022/08/01 07:28:24;;;;;;;7.32;1.45;;;18.80;99.90;;;;;;5030453;28;20046;-39
2022/08/01 07:30:50;;;;;;;9.40;1.80;;;18.80;99.90;;;;;;5030344;28;20487;-39
2022/08/01 07:33:15;;;;;;;10.10;2.08;;;18.90;99.90;;;;;;5030647;28;20037;-42
2022/08/01 07:35:41;;;;;;;7.90;1.40;;;18.90;99.90;;;;;;5030445;28;20045;-41
2022/08/01 07:38:07;;;;;;;10.23;2.00;;;18.90;99.90;;;;;;5029845;28;20513;-41
2022/08/01 07:40:33;;;;;;;7.72;1.42;;;19.10;99.90;;;;;;5028002;28;20041;-41
2022/08/01 07:42:59;;;;;;;5.78;1.48;;;19.10;99.90;;;;;;5035118;28;20040;-39
2022/08/01 07:45:26;;;;;;;8.25;1.50;;;19.20;99.90;;;;;;5028590;28;20057;-39
2022/08/01 07:47:52;;;;;;;7.68;1.38;;;19.30;99.90;;;;;;5019465;28;20477;-39
2022/08/01 07:50:18;;;;;;;9.70;1.75;;;19.50;99.90;;;;;;5028926;28;20045;-39
2022/08/01 07:52:44;;;;;;;10.15;1.60;;;19.50;99.90;;;;;;5022895;28;20120;-41
2022/08/01 07:55:11;;;;;;;8.40;1.50;;;19.50;99.90;;;;;;5030098;28;20105;-39
2022/08/01 07:57:37;;;;;;;11.38;2.05;;;19.60;99.90;;;;;;5025995;28;20053;-41
2022/08/01 08:00:05;;;;;;;8.35;1.80;;;19.60;99.90;;;;;;5028095;28;20483;-39
2022/08/01 08:02:32;;;;;;;10.38;2.60;;;19.60;99.90;;;;;;5029996;28;20478;-38
2022/08/01 08:04:58;;;;;;;9.55;1.42;;;19.60;99.90;;;;;;5030002;28;20048;-39
2022/08/01 08:07:24;;;;;;;10.63;1.70;;;19.60;99.90;;;;;;5029893;28;20105;-42
2022/08/01 08:09:49;;;;;;;5.93;1.20;;;19.60;99.90;;;;;;5030080;28;20151;-40
2022/08/01 08:12:15;;;;;;;6.63;1.67;;;19.60;99.90;;;;;;5029660;28;20041;-38
2022/08/01 08:14:40;;;;;;;8.05;1.45;;;19.60;99.90;;;;;;5030113;28;20025;-40
2022/08/01 08:17:06;;;;;;;9.20;1.60;;;19.60;99.90;;;;;;5020024;28;20092;-39
2022/08/01 08:19:33;;;;;;;7.93;1.55;;;19.70;99.90;;;;;;5017391;28;20045;-39
2022/08/01 08:22:02;;;;;;;8.65;1.67;;;19.70;99.90;;;;;;5029586;28;20037;-39
2022/08/01 08:24:28;;;;;;;8.80;1.50;;;19.80;99.90;;;;;;5023305;28;20037;-41
2022/08/01 08:26:59;;;;;;;8.32;1.85;;;19.90;99.90;;;;;;5024293;28;20407;-39
2022/08/01 08:29:26;;;;;;;11.02;1.63;;;19.90;99.90;;;;;;5030030;28;20088;-39
2022/08/01 08:31:53;;;;;;;11.23;1.88;;;20.00;99.90;;;;;;5024570;28;20034;-41
2022/08/01 08:34:19;;;;;;;11.02;2.33;;;20.20;99.90;;;;;;5027651;28;20165;-41
2022/08/01 08:36:45;;;;;;;9.60;1.77;;;20.30;99.90;;;;;;5028370;28;20041;-39
2022/08/01 08:39:11;;;;;;;7.75;1.83;;;20.40;99.90;;;;;;5024876;28;20075;-41
2022/08/01 08:41:37;;;;;;;6.10;1.20;;;20.50;99.90;;;;;;5024737;28;20037;-41
2022/08/01 08:44:07;;;;;;;7.97;1.27;;;20.50;99.90;;;;;;5030033;28;20146;-39
2022/08/01 08:46:33;;;;;;;8.90;1.38;;;20.60;99.90;;;;;;5029703;28;20060;-39
2022/08/01 08:49:01;;;;;;;13.40;1.45;;;20.60;99.90;;;;;;5029683;28;20391;-41
2022/08/01 08:51:29;;;;;;;5.85;1.83;;;20.60;99.90;;;;;;5018750;28;20145;-40
2022/08/01 08:53:56;;;;;;;9.73;1.52;;;20.60;99.90;;;;;;5029827;28;20159;-41
2022/08/01 08:56:25;;;;;;;8.80;1.55;;;20.70;99.90;;;;;;5029513;28;20064;-41
2022/08/01 08:58:51;;;;;;;7.07;1.40;;;20.60;99.90;;;;;;5023884;28;20052;-42
2022/08/01 09:01:17;;;;;;;5.65;1.20;;;20.60;99.90;;;;;;5032166;28;20042;-39
2022/08/01 09:03:44;;;;;;;9.95;1.20;;;20.70;99.90;;;;;;5033191;28;20091;-38
2022/08/01 09:06:10;;;;;;;7.30;1.20;;;20.70;99.90;;;;;;5029810;28;20392;-39
2022/08/01 09:08:36;;;;;;;6.53;1.75;;;20.70;99.90;;;;;;5033163;28;20045;-42
2022/08/01 09:11:03;;;;;;;7.22;1.60;;;20.70;99.90;;;;;;5031618;28;20087;-39
2022/08/01 09:13:28;;;;;;;10.40;0.95;;;20.80;99.90;;;;;;5024837;28;20073;-43
2022/08/01 09:15:56;;;;;;;11.27;1.27;;;20.80;99.90;;;;;;5030288;28;20092;-39
2022/08/01 09:18:43;;;;;;;5.75;1.25;;;20.90;99.90;;;;;;5032787;28;20041;-39
2022/08/01 09:21:12;;;;;;;4.90;0.85;;;20.90;99.90;;;;;;5032413;28;20595;-38
2022/08/01 09:23:47;;;;;;;6.57;1.23;;;20.90;99.90;;;;;;5021587;28;20042;-39
2022/08/01 09:26:15;;;;;;;8.23;1.30;;;20.90;99.90;;;;;;5030564;28;20049;-39
2022/08/01 09:28:43;;;;;;;8.82;1.30;;;21.00;99.90;;;;;;5032891;28;20102;-42
2022/08/01 09:31:11;;;;;;;9.48;1.35;;;21.20;99.30;;;;;;5030764;28;20117;-39
2022/08/01 09:34:09;;;;;;;7.72;1.58;;;21.30;98.90;;;;;;5032763;28;20076;-39
2022/08/01 09:36:54;;;;;;;5.57;1.23;;;21.50;97.10;;;;;;5025380;28;20470;-41
2022/08/01 09:39:21;;;;;;;7.22;1.20;;;21.60;97.50;;;;;;5026499;28;20584;-37
2022/08/01 09:41:48;;;;;;;6.18;1.27;;;21.70;97.70;;;;;;5028728;28;20045;-40
2022/08/01 09:44:17;;;;;;;7.50;1.40;;;21.80;96.90;;;;;;5032851;28;20049;-40
2022/08/01 09:46:51;;;;;;;6.15;1.40;;;21.80;96.10;;;;;;5032121;28;20052;-38
2022/08/01 09:49:28;;;;;;;6.78;1.20;;;21.80;95.40;;;;;;5031383;28;20044;-37
2022/08/01 09:51:54;;;;;;;9.80;1.30;;;21.80;95.30;;;;;;5024100;28;20049;-40
2022/08/01 09:54:33;;;;;;;6.85;1.15;;;21.80;95.10;;;;;;5032524;28;20041;-39
2022/08/01 09:57:14;;;;;;;6.78;1.17;;;21.80;94.20;;;;;;5025614;28;20037;-40
2022/08/01 09:59:42;;;;;;;6.25;1.10;;;21.80;92.30;;;;;;5028908;28;20037;-38
2022/08/01 10:02:15;;;;;;;5.65;0.95;;;21.90;92.80;;;;;;5032049;28;20132;-38
2022/08/01 10:04:51;;;;;;;8.77;1.25;;;22.00;92.40;;;;;;5032285;28;20042;-40
2022/08/01 10:07:18;;;;;;;8.32;1.17;;;22.10;91.90;;;;;;5027789;28;20056;-39
2022/08/01 10:09:46;;;;;;;4.78;1.30;;;22.20;91.70;;;;;;5032057;28;20052;-39
2022/08/01 10:12:14;;;;;;;5.72;1.00;;;22.20;90.90;;;;;;5029031;28;20049;-37
2022/08/01 10:14:41;;;;;;;6.45;1.02;;;22.30;90.40;;;;;;5032214;28;20165;-39
2022/08/01 10:17:09;;;;;;;4.55;1.27;;;22.20;90.40;;;;;;5031945;28;20045;-38
2022/08/01 10:19:37;;;;;;;4.20;0.93;;;22.30;91.10;;;;;;5031526;28;20099;-40
2022/08/01 10:22:07;;;;;;;4.40;1.15;;;22.40;90.80;;;;;;5031418;28;20056;-38
2022/08/01 10:24:37;;;;;;;3.00;0.70;;;22.60;90.80;;;;;;5027218;28;20042;-38
2022/08/01 10:27:07;;;;;;;5.78;1.27;;;22.70;90.20;;;;;;5025176;28;20041;-38
2022/08/01 10:29:42;;;;;;;7.85;1.10;;;22.70;89.40;;;;;;5031696;28;20513;-42
2022/08/01 10:32:09;;;;;;;3.65;1.00;;;22.80;88.10;;;;;;5028976;28;20545;-40
2022/08/01 10:34:38;;;;;;;4.70;0.98;;;23.00;88.30;;;;;;5024046;28;20041;-39
2022/08/01 10:37:07;;;;;;;5.45;0.88;;;23.00;86.10;;;;;;5031044;28;20042;-38
2022/08/01 10:39:33;;;;;;;4.50;0.85;;;23.00;83.90;;;;;;5023701;28;20066;-39
2022/08/01 10:42:00;;;;;;;3.90;0.68;;;23.00;82.90;;;;;;5044926;28;20046;-40
2022/08/01 10:44:28;;;;;;;4.45;0.80;;;23.10;82.30;;;;;;5031741;28;20524;-38
2022/08/01 10:47:13;;;;;;;4.80;0.75;;;23.20;82.40;;;;;;5026758;28;20506;-41
2022/08/01 10:49:45;;;;;;;4.25;0.88;;;23.30;79.40;;;;;;5031330;28;20483;-38
2022/08/01 10:52:17;;;;;;;5.80;0.90;;;23.30;77.90;;;;;;5029053;28;20060;-38
2022/08/01 10:54:44;;;;;;;3.85;0.52;;;23.40;76.90;;;;;;5031220;28;20068;-42
2022/08/01 10:57:11;;;;;;;4.10;0.70;;;23.40;77.50;;;;;;5030643;28;20037;-41
2022/08/01 10:59:51;;;;;;;5.15;0.75;;;23.40;76.50;;;;;;5025625;28;20048;-41
2022/08/01 11:02:33;;;;;;;3.83;0.80;;;23.20;74.10;;;;;;5031053;28;20044;-40
2022/08/01 11:05:03;;;;;;;2.63;0.57;;;23.20;74.40;;;;;;5030184;28;20049;-49
2022/08/01 11:07:55;;;;;;;5.93;0.85;;;23.20;73.10;;;;;;5030622;28;20045;-40
2022/08/01 11:10:40;;;;;;;5.35;1.00;;;23.20;73.80;;;;;;5029874;28;20061;-38
2022/08/01 11:13:11;;;;;;;4.07;0.95;;;23.30;74.80;;;;;;5030591;28;20120;-41
2022/08/01 11:15:38;;;;;;;2.83;0.80;;;23.40;73.80;;;;;;5030116;28;20206;-39
2022/08/01 11:18:30;;;;;;;4.95;0.80;;;23.40;74.10;;;;;;5023853;28;20037;-40
2022/08/01 11:20:58;;;;;;;3.70;0.88;;;23.40;74.70;;;;;;5018302;28;20053;-38
2022/08/01 11:23:27;;;;;;;4.82;0.68;;;23.40;76.30;;;;;;5030002;28;20043;-41
2022/08/01 11:25:53;;;;;;;5.53;0.80;;;23.40;75.20;;;;;;5028887;28;20046;-38
2022/08/01 11:28:23;;;;;;;4.05;1.25;;;23.50;74.80;;;;;;5029180;28;20046;-41
2022/08/01 11:30:49;;;;;;;3.67;1.05;;;23.50;73.90;;;;;;5030329;28;20049;-38
2022/08/01 11:33:18;;;;;;;2.50;0.70;;;23.50;75.70;;;;;;5030831;28;20033;-38
2022/08/01 11:38:39;;;;;;;2.80;0.70;;;23.50;71.20;;;;;;5018818;28;20515;-39
2022/08/01 11:41:35;;;;;;;6.68;0.88;;;23.50;74.70;;;;;;5030328;28;20479;-41
2022/08/01 11:44:05;;;;;;;3.70;0.75;;;23.60;73.60;;;;;;5017587;28;20127;-38
2022/08/01 11:47:02;;;;;;;2.35;0.70;;;23.60;73.50;;;;;;5029214;28;20164;-38
2022/08/01 11:49:33;;;;;;;5.07;0.90;;;23.60;69.80;;;;;;5030847;28;20044;-39
2022/08/01 11:52:14;;;;;;;6.90;0.93;;;23.50;71.40;;;;;;5021594;28;20037;-40
2022/08/01 11:54:48;;;;;;;6.90;1.00;;;23.30;69.50;;;;;;5030370;28;20037;-41
2022/08/01 11:57:19;;;;;;;3.50;0.95;;;23.10;67.80;;;;;;5027839;28;20506;-42
2022/08/01 11:59:48;;;;;;;3.58;0.95;;;23.10;69.10;;;;;;5027006;28;20037;-41
2022/08/01 12:02:25;;;;;;;5.55;0.82;;;23.20;70.40;;;;;;5030006;28;20450;-39
2022/08/01 12:05:00;;;;;;;3.67;0.80;;;23.30;65.20;;;;;;5029968;28;20060;-38
2022/08/01 12:07:27;;;;;;;4.10;0.80;;;23.30;65.40;;;;;;5029564;28;20112;-38
2022/08/01 12:10:02;;;;;;;3.78;0.80;;;23.30;66.80;;;;;;5023635;28;20499;-38
2022/08/01 12:12:29;;;;;;;2.88;0.52;;;23.30;65.60;;;;;;5024386;28;20460;-39
2022/08/01 12:15:01;;;;;;;5.40;0.85;;;23.20;66.50;;;;;;5030266;28;20510;-40
2022/08/01 12:17:38;;;;;;;4.77;0.80;;;23.20;66.00;;;;;;5016338;28;20121;-38
2022/08/01 12:20:07;;;;;;;3.33;0.60;;;23.30;60.50;;;;;;5029685;28;20116;-38
2022/08/01 12:22:33;;;;;;;4.63;0.50;;;23.40;65.30;;;;;;5029035;28;20102;-38
2022/08/01 12:25:17;;;;;;;2.78;0.57;;;23.40;65.20;;;;;;5023578;28;20513;-41
2022/08/01 12:27:45;;;;;;;1.77;0.57;;;23.40;64.90;;;;;;5019065;28;20044;-41
2022/08/01 12:30:13;;;;;;;2.28;0.50;;;23.40;65.20;;;;;;5029713;28;20060;-39
2022/08/01 12:32:42;;;;;;;5.60;0.68;;;23.60;65.30;;;;;;5029417;28;20129;-39
2022/08/01 12:35:14;;;;;;;6.70;0.80;;;23.80;64.00;;;;;;5032504;28;20077;-39
2022/08/01 12:37:44;;;;;;;3.90;0.60;;;23.90;62.30;;;;;;5033298;28;20048;-40
2022/08/01 12:40:35;;;;;;;6.00;0.82;;;23.90;62.20;;;;;;5022993;28;20041;-38
2022/08/01 12:43:03;;;;;;;5.05;0.88;;;23.90;58.30;;;;;;5030898;28;20049;-38
2022/08/01 12:45:43;;;;;;;2.58;0.60;;;24.00;59.40;;;;;;5048956;28;20049;-38
2022/08/01 12:48:13;;;;;;;3.85;0.70;;;23.90;57.40;;;;;;5032429;28;20045;-39
2022/08/01 12:50:43;;;;;;;2.35;0.55;;;24.00;58.10;;;;;;5033640;28;20037;-39
2022/08/01 12:53:09;;;;;;;2.40;0.52;;;24.10;56.70;;;;;;5033328;28;20044;-40
2022/08/01 12:55:45;;;;;;;7.10;0.63;;;24.20;55.50;;;;;;5031095;28;20109;-39